Time;durP1;ratioP1;P1;durP2;ratioP2;P2;SDS_P1;SDS_P2;PMS_P1;PMS_P2;Temp;Humidity;BMP_temperature;BMP_pressure;BME280_temperature;BME280_humidity;BME280_pressure;Samples;Min_cycle;Max_cycle;Signal;HPM_P1;HPM_P2
2022/10/04 00:01:31;;;;;;;11.80;0.70;;;;;;;9.32;100.00;99618.14;100629;1341;23218;-35
2022/10/04 00:04:02;;;;;;;17.00;3.10;;;;;;;9.36;100.00;99613.38;100688;1333;24375;-36
2022/10/04 00:06:28;;;;;;;2.40;1.00;;;;;;;9.31;100.00;99614.98;100684;1341;23104;-35
2022/10/04 00:08:57;;;;;;;0.10;0.10;;;;;;;9.27;100.00;99617.05;100610;1341;23079;-32
2022/10/04 00:11:25;;;;;;;2.60;0.70;;;;;;;9.27;100.00;99614.61;100611;1339;22513;-35
2022/10/04 00:13:53;;;;;;;3.50;0.70;;;;;;;9.31;100.00;99616.98;100644;1333;23221;-38
2022/10/04 00:16:22;;;;;;;7.30;0.80;;;;;;;9.33;100.00;99613.91;100677;1341;23243;-33
2022/10/04 00:18:47;;;;;;;2.50;0.70;;;;;;;9.22;100.00;99615.32;100679;1341;25367;-38
2022/10/04 00:21:13;;;;;;;5.90;0.90;;;;;;;9.29;100.00;99617.97;100648;1341;23239;-36
2022/10/04 00:23:40;;;;;;;1.90;1.10;;;;;;;9.29;100.00;99618.94;100610;1332;22493;-33
2022/10/04 00:26:12;;;;;;;9.80;0.70;;;;;;;9.28;100.00;99617.21;100686;1333;23233;-36
2022/10/04 00:28:44;;;;;;;12.00;1.10;;;;;;;9.23;100.00;99621.01;100646;1333;22879;-40
2022/10/04 00:31:15;;;;;;;3.50;0.60;;;;;;;9.25;100.00;99624.17;100676;1333;22566;-33
2022/10/04 00:33:42;;;;;;;5.30;0.60;;;;;;;9.31;100.00;99621.80;100648;1334;22751;-35
2022/10/04 00:36:14;;;;;;;6.20;0.40;;;;;;;9.28;100.00;99626.98;100618;1341;24493;-33
2022/10/04 00:38:40;;;;;;;3.50;0.70;;;;;;;9.22;100.00;99630.02;100641;1341;22493;-34
2022/10/04 00:41:05;;;;;;;7.60;1.20;;;;;;;9.21;100.00;99629.80;100636;1333;23207;-37
2022/10/04 00:43:37;;;;;;;1.20;0.50;;;;;;;9.16;100.00;99632.16;100606;1333;24365;-34
2022/10/04 00:46:06;;;;;;;2.80;0.80;;;;;;;9.24;100.00;99631.26;100630;1332;24337;-34
2022/10/04 00:48:39;;;;;;;4.50;0.50;;;;;;;9.21;100.00;99632.48;100637;1333;23072;-36
2022/10/04 00:51:10;;;;;;;3.90;1.50;;;;;;;9.22;100.00;99632.70;100578;1333;24504;-34
2022/10/04 00:53:40;;;;;;;0.80;0.60;;;;;;;9.28;100.00;99627.49;100686;1341;23908;-35
2022/10/04 00:56:10;;;;;;;4.80;1.30;;;;;;;9.30;100.00;99629.04;100708;1341;22873;-34
2022/10/04 00:58:44;;;;;;;2.60;0.90;;;;;;;9.26;100.00;99627.54;100558;1334;23092;-33
2022/10/04 01:01:10;;;;;;;5.50;1.20;;;;;;;9.44;100.00;99617.58;100658;1341;22504;-37
2022/10/04 01:03:37;;;;;;;3.70;1.20;;;;;;;9.41;100.00;99612.77;100622;1341;23382;-33
2022/10/04 01:06:04;;;;;;;3.10;1.30;;;;;;;9.43;100.00;99608.61;100677;1333;24383;-36
2022/10/04 01:08:32;;;;;;;3.70;0.80;;;;;;;9.49;100.00;99609.70;100628;1333;22828;-36
2022/10/04 01:11:03;;;;;;;5.00;1.00;;;;;;;9.54;100.00;99606.02;100646;1341;24489;-36
2022/10/04 01:13:45;;;;;;;9.30;1.30;;;;;;;9.46;100.00;99603.02;100645;1326;25588;-34
2022/10/04 01:16:17;;;;;;;12.00;1.20;;;;;;;9.52;100.00;99599.30;100357;1329;417157;-37
2022/10/04 01:18:43;;;;;;;1.00;0.40;;;;;;;9.49;100.00;99593.15;100689;1341;23053;-33
2022/10/04 01:21:25;;;;;;;1.40;0.40;;;;;;;9.48;100.00;99592.40;100580;1336;24389;-41
2022/10/04 01:23:52;;;;;;;7.80;0.70;;;;;;;9.42;100.00;99591.96;100650;1341;22533;-37
2022/10/04 01:26:24;;;;;;;11.10;1.20;;;;;;;9.34;100.00;99607.16;100632;1335;22744;-35
2022/10/04 01:28:51;;;;;;;3.20;0.30;;;;;;;9.35;100.00;99608.86;100627;1341;23021;-35
2022/10/04 01:31:16;;;;;;;5.60;0.60;;;;;;;9.43;100.00;99602.88;100617;1341;22765;-32
2022/10/04 01:33:42;;;;;;;3.70;1.60;;;;;;;9.39;100.00;99604.06;100634;1339;23115;-33
2022/10/04 01:36:07;;;;;;;2.10;1.00;;;;;;;9.39;100.00;99598.91;100597;1333;22730;-35
2022/10/04 01:38:33;;;;;;;1.80;0.70;;;;;;;9.32;100.00;99604.75;100549;1325;23057;-36
2022/10/04 01:40:59;;;;;;;7.50;1.50;;;;;;;9.34;100.00;99605.15;100562;1333;24335;-36
2022/10/04 01:43:28;;;;;;;4.60;0.90;;;;;;;9.44;100.00;99599.34;100622;1339;22719;-38
2022/10/04 01:45:57;;;;;;;2.80;0.60;;;;;;;9.37;100.00;99594.96;100584;1341;24375;-34
2022/10/04 01:48:24;;;;;;;4.10;0.90;;;;;;;9.41;100.00;99593.79;100570;1333;24384;-34
2022/10/04 01:50:55;;;;;;;4.70;0.90;;;;;;;9.42;100.00;99590.70;100649;1340;22495;-37
2022/10/04 01:53:25;;;;;;;8.10;1.50;;;;;;;9.42;100.00;99585.33;100561;1341;23258;-35
2022/10/04 01:55:52;;;;;;;3.70;1.00;;;;;;;9.41;100.00;99582.02;100632;1332;23245;-37
2022/10/04 01:58:20;;;;;;;7.10;3.00;;;;;;;9.40;100.00;99582.30;100607;1341;23117;-35
2022/10/04 02:00:50;;;;;;;4.90;0.70;;;;;;;9.39;100.00;99580.17;100624;1333;24381;-33
2022/10/04 02:03:21;;;;;;;10.00;1.40;;;;;;;9.43;100.00;99569.14;100589;1341;22571;-33
2022/10/04 02:05:51;;;;;;;10.20;1.00;;;;;;;9.43;100.00;99564.94;100640;1333;22505;-33
2022/10/04 02:08:17;;;;;;;2.70;0.80;;;;;;;9.39;100.00;99568.92;100680;1332;22754;-32
2022/10/04 02:10:44;;;;;;;8.50;1.70;;;;;;;9.38;100.00;99574.50;100615;1333;23026;-38
2022/10/04 02:13:12;;;;;;;3.00;1.10;;;;;;;9.36;100.00;99574.53;100497;1341;23104;-33
2022/10/04 02:15:38;;;;;;;14.20;1.20;;;;;;;9.29;100.00;99575.42;100709;1333;24387;-37
2022/10/04 02:18:12;;;;;;;4.60;1.00;;;;;;;9.33;100.00;99575.41;100606;1333;23247;-33
2022/10/04 02:20:38;;;;;;;;;;;;;;;9.37;100.00;99576.40;100663;1333;24503;-35
2022/10/04 02:23:03;;;;;;;15.00;1.60;;;;;;;9.26;100.00;99581.44;100598;1333;24389;-35
2022/10/04 02:25:29;;;;;;;3.40;1.00;;;;;;;9.27;100.00;99586.39;100666;1339;24358;-32
2022/10/04 02:27:55;;;;;;;4.40;0.90;;;;;;;9.27;100.00;99584.34;100631;1327;23255;-37
2022/10/04 02:30:21;;;;;;;8.10;1.90;;;;;;;9.27;100.00;99589.08;100680;1339;24814;-31
2022/10/04 02:35:16;;;;;;;2.50;0.90;;;;;;;9.27;100.00;99584.05;100654;1340;24384;-36
2022/10/04 02:37:42;;;;;;;8.00;1.00;;;;;;;9.24;100.00;99596.04;100657;1341;22889;-31
2022/10/04 02:40:11;;;;;;;8.00;1.70;;;;;;;9.20;100.00;99597.42;100604;1333;22769;-33
2022/10/04 02:42:40;;;;;;;6.90;1.10;;;;;;;9.20;100.00;99598.25;100686;1333;23094;-33
2022/10/04 02:45:12;;;;;;;6.20;1.00;;;;;;;9.19;100.00;99589.49;100653;1341;23151;-33
2022/10/04 02:47:43;;;;;;;8.00;1.10;;;;;;;9.15;100.00;99596.92;100651;1339;22651;-36
2022/10/04 02:50:19;;;;;;;9.10;1.20;;;;;;;9.13;100.00;99592.87;100654;1333;24386;-34
2022/10/04 02:52:46;;;;;;;4.60;1.30;;;;;;;9.15;100.00;99595.53;100580;1342;22518;-36
2022/10/04 02:55:16;;;;;;;15.30;1.60;;;;;;;9.12;100.00;99592.68;100653;1333;22563;-34
2022/10/04 02:57:41;;;;;;;6.90;1.30;;;;;;;9.11;100.00;99593.63;100676;1339;23213;-32
2022/10/04 03:00:14;;;;;;;6.70;1.50;;;;;;;9.06;100.00;99599.36;100594;1341;24350;-36
2022/10/04 03:02:40;;;;;;;12.00;1.50;;;;;;;9.12;100.00;99603.99;100577;1339;24383;-33
2022/10/04 03:05:07;;;;;;;3.60;1.40;;;;;;;9.09;100.00;99603.29;100626;1331;22748;-35
2022/10/04 03:07:34;;;;;;;8.60;1.30;;;;;;;9.10;100.00;99604.15;100653;1333;23436;-35
2022/10/04 03:10:00;;;;;;;3.40;0.70;;;;;;;9.13;100.00;99596.08;100638;1335;24365;-33
2022/10/04 03:12:25;;;;;;;11.90;1.70;;;;;;;9.14;100.00;99598.16;100654;1341;24588;-35
2022/10/04 03:14:52;;;;;;;14.30;0.90;;;;;;;9.10;100.00;99595.24;100628;1341;22750;-35
2022/10/04 03:17:18;;;;;;;11.70;0.90;;;;;;;9.04;100.00;99598.70;100600;1341;23329;-37
2022/10/04 03:19:43;;;;;;;7.30;0.80;;;;;;;8.97;100.00;99599.58;100643;1341;23005;-33
2022/10/04 03:22:10;;;;;;;9.50;1.50;;;;;;;8.91;100.00;99604.26;100668;1333;24466;-33
2022/10/04 03:24:39;;;;;;;4.60;1.20;;;;;;;8.92;100.00;99607.66;100610;1339;24385;-36
2022/10/04 03:27:06;;;;;;;9.80;0.30;;;;;;;8.95;100.00;99610.25;100691;1333;23115;-36
2022/10/04 03:29:32;;;;;;;0.70;0.70;;;;;;;8.94;100.00;99616.27;100652;1333;23093;-32
2022/10/04 03:32:00;;;;;;;5.60;1.30;;;;;;;8.94;100.00;99617.42;100678;1333;23020;-36
2022/10/04 03:34:32;;;;;;;5.20;1.10;;;;;;;9.01;100.00;99610.23;100625;1333;22774;-34
2022/10/04 03:36:58;;;;;;;6.60;1.00;;;;;;;8.97;100.00;99612.11;100638;1336;26539;-37
2022/10/04 03:39:27;;;;;;;6.80;0.80;;;;;;;8.98;100.00;99614.45;100596;1341;24375;-38
2022/10/04 03:41:53;;;;;;;12.00;2.20;;;;;;;8.94;100.00;99619.23;100617;1341;22519;-32
2022/10/04 03:44:18;;;;;;;3.90;1.00;;;;;;;8.94;100.00;99621.98;100559;1341;26476;-32
2022/10/04 03:46:44;;;;;;;4.30;1.50;;;;;;;8.93;100.00;99616.63;100622;1341;22907;-32
2022/10/04 03:49:12;;;;;;;7.80;1.90;;;;;;;8.95;100.00;99615.52;100572;1332;22782;-33
2022/10/04 03:51:37;;;;;;;2.70;0.80;;;;;;;8.91;100.00;99611.55;100633;1341;25393;-35
2022/10/04 03:54:05;;;;;;;2.20;0.70;;;;;;;8.88;100.00;99606.48;100633;1333;24362;-37
2022/10/04 03:56:32;;;;;;;8.40;1.40;;;;;;;8.86;100.00;99606.90;100609;1341;26770;-37
2022/10/04 03:58:58;;;;;;;7.50;1.30;;;;;;;8.81;100.00;99602.16;100658;1333;22762;-35
2022/10/04 04:01:27;;;;;;;2.30;0.50;;;;;;;8.81;100.00;99601.41;100607;1339;22498;-32
2022/10/04 04:03:55;;;;;;;10.40;0.90;;;;;;;8.79;100.00;99599.20;100583;1340;24588;-33
2022/10/04 04:06:21;;;;;;;6.90;1.40;;;;;;;8.76;100.00;99598.48;100628;1339;23056;-33
2022/10/04 04:08:48;;;;;;;3.40;1.20;;;;;;;8.62;100.00;99607.39;100580;1333;23119;-36
2022/10/04 04:11:20;;;;;;;13.70;2.00;;;;;;;8.57;100.00;99612.45;100678;1333;23270;-33
2022/10/04 04:13:50;;;;;;;3.50;1.10;;;;;;;8.54;100.00;99627.30;100630;1341;24053;-36
2022/10/04 04:16:18;;;;;;;4.30;1.30;;;;;;;8.57;100.00;99632.16;100681;1341;24506;-32
2022/10/04 04:18:43;;;;;;;8.40;1.80;;;;;;;8.59;100.00;99637.80;100637;1341;22894;-36
2022/10/04 04:21:10;;;;;;;12.10;2.30;;;;;;;8.61;100.00;99633.08;100638;1341;23228;-34
2022/10/04 04:23:39;;;;;;;3.90;0.80;;;;;;;8.64;100.00;99644.87;100634;1339;24432;-33
2022/10/04 04:26:13;;;;;;;22.50;2.00;;;;;;;8.61;100.00;99647.77;100645;1338;22501;-36
2022/10/04 04:28:42;;;;;;;3.20;0.90;;;;;;;8.59;100.00;99655.45;100647;1341;24383;-37
2022/10/04 04:31:12;;;;;;;2.40;1.50;;;;;;;8.62;100.00;99651.14;100698;1341;25387;-33
2022/10/04 04:33:43;;;;;;;9.20;2.60;;;;;;;8.61;100.00;99655.55;100648;1341;23255;-37
2022/10/04 04:36:10;;;;;;;5.80;1.90;;;;;;;8.62;100.00;99660.31;100646;1341;24337;-33
2022/10/04 04:39:33;;;;;;;2.30;0.70;;;;;;;8.63;100.00;99663.02;100653;1333;22902;-33
2022/10/04 04:41:21;;;;;;;6.10;1.40;;;;;;;8.64;100.00;99662.90;100622;1340;22729;-34
2022/10/04 04:43:47;;;;;;;;;;;;;;;8.63;100.00;99664.08;100547;1335;23235;-34
2022/10/04 04:46:13;;;;;;;8.30;1.10;;;;;;;8.65;100.00;99670.30;100621;1341;23119;-33
2022/10/04 04:48:38;;;;;;;3.20;1.20;;;;;;;8.62;100.00;99672.89;100502;1341;23103;-37
2022/10/04 04:51:04;;;;;;;4.70;1.70;;;;;;;8.67;100.00;99669.55;100591;1334;22713;-33
2022/10/04 04:53:30;;;;;;;4.80;1.20;;;;;;;8.66;100.00;99673.00;100651;1341;24940;-35
2022/10/04 04:55:57;;;;;;;4.30;1.10;;;;;;;8.68;100.00;99672.76;100601;1333;24125;-35
2022/10/04 04:58:24;;;;;;;6.80;2.10;;;;;;;8.65;100.00;99668.45;100669;1341;22729;-35
2022/10/04 05:00:56;;;;;;;7.80;1.80;;;;;;;8.64;100.00;99669.63;100603;1341;24390;-35
2022/10/04 05:03:22;;;;;;;5.80;1.80;;;;;;;8.68;100.00;99671.19;100651;1340;22499;-32
2022/10/04 05:05:49;;;;;;;2.50;1.20;;;;;;;8.64;100.00;99672.75;100613;1339;22765;-32
2022/10/04 05:08:21;;;;;;;1.10;0.50;;;;;;;8.65;100.00;99672.98;100473;1341;24383;-35
2022/10/04 05:10:54;;;;;;;14.90;2.00;;;;;;;8.69;100.00;99677.70;100684;1340;22642;-35
2022/10/04 05:13:20;;;;;;;2.20;1.80;;;;;;;8.72;100.00;99678.83;100688;1341;23884;-36
2022/10/04 05:15:45;;;;;;;12.50;2.30;;;;;;;8.69;100.00;99681.25;100637;1340;22760;-33
2022/10/04 05:18:16;;;;;;;36.80;1.80;;;;;;;8.69;100.00;99683.59;100532;1335;24457;-34
2022/10/04 05:20:45;;;;;;;9.90;0.90;;;;;;;8.69;100.00;99684.50;100651;1333;23359;-32
2022/10/04 05:23:11;;;;;;;6.80;1.40;;;;;;;8.73;100.00;99683.13;100588;1341;23221;-32
2022/10/04 05:25:37;;;;;;;6.00;1.40;;;;;;;8.74;100.00;99687.61;100646;1333;23167;-36
2022/10/04 05:28:04;;;;;;;14.00;1.80;;;;;;;8.72;100.00;99690.67;100485;1341;23223;-35
2022/10/04 05:30:47;;;;;;;8.30;1.10;;;;;;;8.73;100.00;99696.15;100435;1335;22890;-32
2022/10/04 05:33:23;;;;;;;1.20;0.60;;;;;;;8.78;100.00;99697.70;100612;1331;22602;-32
2022/10/04 05:35:49;;;;;;;5.10;1.50;;;;;;;8.76;100.00;99708.81;100654;1340;22885;-34
2022/10/04 05:38:22;;;;;;;3.50;1.20;;;;;;;8.83;100.00;99709.11;100615;1331;22555;-35
2022/10/04 05:40:55;;;;;;;5.30;1.30;;;;;;;8.79;100.00;99706.73;100672;1341;22755;-40
2022/10/04 05:43:25;;;;;;;8.10;2.00;;;;;;;8.77;100.00;99712.30;100658;1341;25411;-32
2022/10/04 05:45:58;;;;;;;26.30;3.00;;;;;;;8.79;100.00;99712.95;100614;1333;22765;-35
2022/10/04 05:48:23;;;;;;;3.80;1.60;;;;;;;8.81;100.00;99722.55;100629;1341;23388;-35
2022/10/04 05:50:49;;;;;;;6.60;1.50;;;;;;;8.85;100.00;99719.73;100609;1333;23068;-35
2022/10/04 05:53:23;;;;;;;5.50;1.30;;;;;;;8.90;100.00;99721.89;100669;1339;23066;-32
2022/10/04 05:55:51;;;;;;;8.40;1.90;;;;;;;8.96;100.00;99719.20;100635;1341;25234;-35
2022/10/04 05:58:24;;;;;;;9.80;1.50;;;;;;;9.00;100.00;99722.35;100640;1341;23920;-36
2022/10/04 06:01:09;;;;;;;18.40;1.80;;;;;;;9.01;100.00;99722.14;100705;1341;25295;-38
2022/10/04 06:03:41;;;;;;;7.10;1.70;;;;;;;9.06;100.00;99730.64;100513;1341;24361;-36
2022/10/04 06:06:16;;;;;;;3.50;1.70;;;;;;;9.13;100.00;99723.97;100654;1341;22668;-33
2022/10/04 06:08:49;;;;;;;6.80;2.20;;;;;;;9.08;100.00;99730.33;100699;1341;23351;-34
2022/10/04 06:11:22;;;;;;;7.50;1.50;;;;;;;9.10;100.00;99731.42;100693;1341;22880;-33
2022/10/04 06:13:51;;;;;;;4.30;1.00;;;;;;;9.10;100.00;99737.67;100684;1339;24370;-35
2022/10/04 06:16:33;;;;;;;10.90;2.20;;;;;;;9.13;100.00;99740.20;100624;1341;22895;-33
2022/10/04 06:19:03;;;;;;;6.70;1.90;;;;;;;9.18;100.00;99746.48;100679;1341;23217;-36
2022/10/04 06:21:35;;;;;;;8.00;1.70;;;;;;;9.20;100.00;99743.50;100429;1342;25269;-36
2022/10/04 06:24:04;;;;;;;8.10;1.20;;;;;;;9.16;100.00;99744.63;100617;1341;22627;-36
2022/10/04 06:26:39;;;;;;;4.70;1.60;;;;;;;9.21;100.00;99745.38;100595;1341;22895;-34
2022/10/04 06:29:08;;;;;;;9.80;1.80;;;;;;;9.31;100.00;99748.11;100649;1340;24355;-35
2022/10/04 06:31:43;;;;;;;11.10;1.50;;;;;;;9.33;100.00;99745.21;100558;1341;25332;-36
2022/10/04 06:34:16;;;;;;;3.90;1.10;;;;;;;9.41;100.00;99740.97;100632;1341;23007;-38
2022/10/04 06:36:46;;;;;;;5.90;0.90;;;;;;;9.38;100.00;99734.86;100629;1341;22510;-35
2022/10/04 06:39:19;;;;;;;5.80;1.40;;;;;;;9.46;100.00;99726.38;100648;1341;23227;-37
2022/10/04 06:41:47;;;;;;;8.00;1.10;;;;;;;9.50;100.00;99724.16;100671;1340;22516;-37
2022/10/04 06:44:16;;;;;;;9.60;2.00;;;;;;;9.50;100.00;99713.07;100652;1325;23256;-37
2022/10/04 06:46:47;;;;;;;7.50;1.40;;;;;;;9.58;100.00;99714.02;100634;1341;23898;-36
2022/10/04 06:49:19;;;;;;;14.40;1.30;;;;;;;9.67;100.00;99722.75;100643;1333;22757;-34
2022/10/04 06:51:56;;;;;;;18.60;1.80;;;;;;;9.76;100.00;99728.50;100628;1339;24778;-36
2022/10/04 06:54:31;;;;;;;8.50;1.10;;;;;;;9.83;100.00;99730.17;100498;1341;22552;-37
2022/10/04 06:57:03;;;;;;;11.00;1.70;;;;;;;9.84;100.00;99727.55;100467;1344;24859;-37
2022/10/04 06:59:38;;;;;;;7.40;1.00;;;;;;;9.91;100.00;99730.29;100650;1325;22546;-38
2022/10/04 07:02:11;;;;;;;8.60;1.70;;;;;;;10.01;100.00;99732.83;100577;1334;24872;-34
2022/10/04 07:04:44;;;;;;;5.30;1.70;;;;;;;10.13;100.00;99726.27;100506;1336;22501;-37
2022/10/04 07:09:46;;;;;;;10.80;1.70;;;;;;;10.28;100.00;99735.86;100638;1333;23207;-37
2022/10/04 07:12:14;;;;;;;4.00;0.90;;;;;;;10.35;100.00;99742.03;100534;1341;22895;-33
2022/10/04 07:14:44;;;;;;;3.70;0.90;;;;;;;10.39;100.00;99744.06;100676;1326;22506;-33
2022/10/04 07:17:12;;;;;;;4.50;0.70;;;;;;;10.40;100.00;99742.63;100658;1335;22538;-36
2022/10/04 07:19:41;;;;;;;3.70;1.00;;;;;;;10.39;100.00;99739.94;100644;1341;24383;-34
2022/10/04 07:22:06;;;;;;;3.50;1.00;;;;;;;10.38;100.00;99739.85;100648;1341;24225;-34
2022/10/04 07:24:44;;;;;;;7.00;0.90;;;;;;;10.36;100.00;99738.17;100602;1341;23093;-37
2022/10/04 07:27:14;;;;;;;6.50;1.30;;;;;;;10.32;100.00;99740.55;100651;1338;24534;-39
2022/10/04 07:29:40;;;;;;;11.20;1.10;;;;;;;10.29;100.00;99739.67;100633;1341;22879;-34
2022/10/04 07:32:10;;;;;;;3.40;0.80;;;;;;;10.36;100.00;99741.75;100544;1339;22765;-36
2022/10/04 07:34:42;;;;;;;29.20;1.90;;;;;;;10.47;100.00;99743.72;100669;1326;22759;-36
2022/10/04 07:37:09;;;;;;;5.90;1.40;;;;;;;10.48;100.00;99744.02;100629;1339;22739;-36
2022/10/04 07:39:38;;;;;;;11.00;1.30;;;;;;;10.62;100.00;99742.28;100675;1341;24517;-37
2022/10/04 07:42:12;;;;;;;6.20;1.20;;;;;;;10.64;100.00;99739.89;100702;1333;23253;-36
2022/10/04 07:44:39;;;;;;;3.80;0.70;;;;;;;10.51;100.00;99745.95;100639;1341;22557;-36
2022/10/04 07:47:09;;;;;;;4.30;2.30;;;;;;;10.45;100.00;99745.83;100503;1341;23449;-36
2022/10/04 07:49:40;;;;;;;7.00;0.90;;;;;;;10.72;100.00;99744.09;100676;1341;23217;-34
2022/10/04 07:52:14;;;;;;;3.50;0.80;;;;;;;11.08;100.00;99750.15;100672;1341;24330;-37
2022/10/04 07:54:47;;;;;;;6.60;1.10;;;;;;;11.43;99.41;99741.34;100705;1341;22503;-36
2022/10/04 07:57:16;;;;;;;4.80;0.80;;;;;;;11.73;96.73;99740.26;100654;1341;24389;-36
2022/10/04 07:59:42;;;;;;;4.00;1.50;;;;;;;11.85;96.78;99747.98;100655;1336;24365;-34
2022/10/04 08:02:11;;;;;;;4.80;0.90;;;;;;;11.79;96.34;99747.69;100621;1341;24499;-36
2022/10/04 08:04:45;;;;;;;3.10;0.80;;;;;;;11.83;97.31;99753.88;100691;1333;22761;-37
2022/10/04 08:07:17;;;;;;;7.50;1.30;;;;;;;11.73;95.73;99755.98;100676;1339;25281;-36
2022/10/04 08:09:51;;;;;;;5.60;1.40;;;;;;;12.00;95.74;99758.48;100628;1341;24496;-36
2022/10/04 08:12:20;;;;;;;3.00;0.80;;;;;;;12.07;93.85;99759.34;100622;1341;23246;-34
2022/10/04 08:14:53;;;;;;;2.70;0.60;;;;;;;12.22;93.19;99762.73;100673;1341;22764;-34
2022/10/04 08:17:27;;;;;;;16.30;1.30;;;;;;;12.22;90.79;99764.10;100591;1325;22507;-37
2022/10/04 08:19:59;;;;;;;3.70;0.70;;;;;;;11.98;91.42;99766.27;100529;1344;22710;-34
2022/10/04 08:22:29;;;;;;;6.30;0.80;;;;;;;11.90;90.91;99767.84;100692;1341;22520;-39
2022/10/04 08:25:01;;;;;;;2.90;0.80;;;;;;;11.79;90.90;99777.58;100659;1340;25369;-33
2022/10/04 08:27:33;;;;;;;1.30;0.60;;;;;;;11.84;91.37;99773.48;100643;1327;24499;-35
2022/10/04 08:30:03;;;;;;;6.50;0.50;;;;;;;11.87;90.88;99771.95;100693;1345;23810;-38
2022/10/04 08:32:35;;;;;;;5.10;0.80;;;;;;;11.97;91.77;99779.73;100640;1341;22890;-34
2022/10/04 08:35:04;;;;;;;4.70;1.00;;;;;;;11.97;92.12;99781.50;100621;1340;22637;-37
2022/10/04 08:37:34;;;;;;;3.50;0.70;;;;;;;11.96;92.25;99782.36;100662;1344;24484;-39
2022/10/04 08:40:08;;;;;;;13.10;0.80;;;;;;;11.83;90.87;99783.23;100589;1338;24497;-37
2022/10/04 08:42:41;;;;;;;8.10;0.70;;;;;;;11.92;91.95;99787.71;100634;1331;25295;-37
2022/10/04 08:45:11;;;;;;;6.00;1.00;;;;;;;12.27;91.96;99790.81;100643;1343;25308;-35
2022/10/04 08:48:01;;;;;;;7.00;1.20;;;;;;;12.32;90.26;99784.42;100685;1343;22821;-34
2022/10/04 08:50:31;;;;;;;2.20;0.50;;;;;;;12.44;88.37;99789.95;100540;1339;22890;-39
2022/10/04 08:53:07;;;;;;;2.50;0.70;;;;;;;12.43;86.93;99786.14;100677;1332;22999;-32
2022/10/04 08:55:38;;;;;;;4.30;0.70;;;;;;;12.37;85.44;99785.19;100636;1345;24019;-33
2022/10/04 08:58:08;;;;;;;5.00;0.80;;;;;;;12.28;85.62;99784.94;100670;1341;24424;-35
2022/10/04 09:00:41;;;;;;;1.20;0.50;;;;;;;12.52;85.99;99792.31;100661;1342;22509;-35
2022/10/04 09:03:25;;;;;;;4.50;0.60;;;;;;;12.77;83.86;99791.68;100410;1347;22484;-34
2022/10/04 09:05:57;;;;;;;4.10;0.80;;;;;;;12.90;83.71;99789.70;100483;1344;23093;-35
2022/10/04 09:08:32;;;;;;;2.10;0.60;;;;;;;12.96;82.69;99793.55;100644;1333;25271;-34
2022/10/04 09:11:15;;;;;;;0.60;0.20;;;;;;;12.82;82.58;99798.67;100646;1347;22593;-37
2022/10/04 09:13:46;;;;;;;2.90;0.60;;;;;;;12.76;83.95;99802.30;100528;1342;23022;-37
2022/10/04 09:16:15;;;;;;;10.60;0.90;;;;;;;12.93;82.60;99808.60;100362;1344;504004;-37
2022/10/04 09:18:50;;;;;;;3.90;0.80;;;;;;;13.01;82.67;99810.77;100706;1337;26607;-35
2022/10/04 09:21:24;;;;;;;1.70;0.50;;;;;;;13.43;82.51;99809.70;100617;1341;22624;-35
2022/10/04 09:23:54;;;;;;;10.70;0.90;;;;;;;13.54;81.15;99814.54;100661;1336;23547;-37
2022/10/04 09:26:23;;;;;;;1.80;0.50;;;;;;;13.40;81.05;99820.58;100676;1340;23047;-37
2022/10/04 09:29:04;;;;;;;1.00;0.30;;;;;;;13.39;81.20;99820.11;100508;1344;22576;-34
2022/10/04 09:31:40;;;;;;;6.80;1.10;;;;;;;13.22;82.12;99816.58;100659;1341;24766;-34
2022/10/04 09:34:09;;;;;;;2.90;0.60;;;;;;;13.15;82.79;99820.04;100637;1344;22542;-34
2022/10/04 09:36:42;;;;;;;2.60;0.70;;;;;;;13.30;82.18;99819.84;100632;1325;24458;-36
2022/10/04 09:39:20;;;;;;;1.60;0.50;;;;;;;13.54;81.18;99820.85;100615;1345;25392;-34
2022/10/04 09:41:51;;;;;;;6.70;0.70;;;;;;;13.48;80.15;99823.78;100642;1345;23103;-36
2022/10/04 09:44:24;;;;;;;1.50;0.60;;;;;;;13.54;79.42;99825.88;100686;1339;23160;-34
2022/10/04 09:46:55;;;;;;;7.40;1.30;;;;;;;13.58;78.88;99829.61;100624;1330;22937;-37
2022/10/04 09:49:33;;;;;;;2.90;0.50;;;;;;;13.48;79.31;99829.69;100635;1347;24336;-37
2022/10/04 09:52:04;;;;;;;2.20;0.50;;;;;;;13.54;78.05;99831.60;100599;1337;22850;-35
2022/10/04 09:54:44;;;;;;;1.20;0.50;;;;;;;13.68;78.61;99832.50;100624;1347;22877;-37
2022/10/04 09:57:17;;;;;;;4.00;0.80;;;;;;;14.06;78.36;99831.80;100598;1339;22505;-37
2022/10/04 09:59:50;;;;;;;1.30;0.50;;;;;;;14.27;77.51;99832.81;100633;1344;22567;-37
2022/10/04 10:02:17;;;;;;;3.20;0.50;;;;;;;14.17;75.91;99837.27;100610;1347;22629;-37
2022/10/04 10:04:50;;;;;;;10.80;0.70;;;;;;;14.07;77.12;99837.24;100674;1344;23165;-36
2022/10/04 10:07:21;;;;;;;1.90;0.30;;;;;;;14.31;78.96;99837.39;100631;1341;23956;-35
2022/10/04 10:15:27;;;;;;;7.50;1.00;;;;;;;14.99;73.79;99849.79;100607;1322;24278;-36
2022/10/04 10:18:17;;;;;;;4.90;0.80;;;;;;;14.79;71.12;99846.41;100599;1345;23093;-34
2022/10/04 10:20:49;;;;;;;1.50;0.40;;;;;;;15.10;68.90;99849.88;100659;1345;22752;-37
2022/10/04 10:23:21;;;;;;;4.60;0.80;;;;;;;15.42;67.91;99844.13;100678;1339;25313;-37
2022/10/04 10:25:57;;;;;;;4.20;0.80;;;;;;;15.22;69.12;99846.77;100615;1342;25624;-36
2022/10/04 10:28:28;;;;;;;7.40;0.80;;;;;;;14.98;69.73;99850.72;100629;1345;23094;-33
2022/10/04 10:31:02;;;;;;;4.10;1.10;;;;;;;14.81;70.46;99850.95;100681;1345;23015;-34
2022/10/04 10:33:31;;;;;;;;;;;;;;;15.18;69.65;99854.66;100646;1338;23069;-36
2022/10/04 10:36:01;;;;;;;5.40;1.90;;;;;;;15.54;67.95;99849.64;100638;1345;24313;-34
2022/10/04 10:38:39;;;;;;;0.30;0.30;;;;;;;15.71;68.52;99850.42;100645;1340;22928;-36
2022/10/04 10:41:08;;;;;;;2.40;0.80;;;;;;;15.55;66.96;99855.04;100675;1341;24232;-34
2022/10/04 10:43:41;;;;;;;5.20;1.20;;;;;;;15.22;68.20;99855.61;100689;1347;24311;-36
2022/10/04 10:46:15;;;;;;;4.00;0.70;;;;;;;15.06;69.59;99859.58;100675;1345;22708;-36
2022/10/04 10:48:44;;;;;;;1.90;0.40;;;;;;;14.94;69.06;99858.38;100633;1346;24571;-35
2022/10/04 10:51:17;;;;;;;2.60;0.50;;;;;;;15.22;69.45;99863.02;100489;1345;23246;-37
2022/10/04 10:53:50;;;;;;;10.50;1.30;;;;;;;15.44;68.44;99855.90;100653;1345;26734;-36
2022/10/04 10:56:20;;;;;;;0.20;0.20;;;;;;;15.61;67.97;99857.30;100674;1339;22938;-33
2022/10/04 10:58:53;;;;;;;1.20;0.30;;;;;;;15.50;66.99;99859.61;100628;1344;22514;-33
2022/10/04 11:01:22;;;;;;;;;;;;;;;14.93;69.79;99866.00;100645;1325;23010;-33
2022/10/04 11:03:51;;;;;;;0.60;0.30;;;;;;;14.82;69.34;99864.56;100645;1341;23122;-36
2022/10/04 11:06:25;;;;;;;9.00;0.40;;;;;;;14.92;68.92;99860.46;100636;1342;24572;-34
2022/10/04 11:09:02;;;;;;;2.10;0.60;;;;;;;15.34;64.67;99860.95;100682;1344;22509;-36
2022/10/04 11:11:31;;;;;;;2.20;0.70;;;;;;;15.46;63.11;99858.34;100681;1340;22502;-37
2022/10/04 11:14:06;;;;;;;2.10;0.50;;;;;;;15.56;62.39;99861.45;100636;1338;22775;-36
2022/10/04 11:16:40;;;;;;;1.10;0.40;;;;;;;15.77;61.83;99862.55;100675;1347;22512;-36
2022/10/04 11:19:16;;;;;;;1.00;0.80;;;;;;;16.12;63.07;99863.25;100618;1346;22890;-34
2022/10/04 11:21:52;;;;;;;2.40;0.40;;;;;;;16.53;61.41;99861.15;100589;1340;22897;-37
2022/10/04 11:24:23;;;;;;;5.00;0.60;;;;;;;16.57;61.27;99865.28;100638;1340;26500;-37
2022/10/04 11:26:56;;;;;;;10.70;0.70;;;;;;;16.06;62.09;99871.05;100649;1341;22502;-35
2022/10/04 11:29:28;;;;;;;3.60;0.90;;;;;;;15.99;62.29;99876.27;100678;1337;25319;-34
2022/10/04 11:31:59;;;;;;;2.20;0.40;;;;;;;16.05;61.40;99874.48;100646;1344;25394;-34
2022/10/04 11:34:49;;;;;;;0.80;0.30;;;;;;;16.46;60.32;99873.27;100654;1339;23325;-37
2022/10/04 11:37:17;;;;;;;2.20;0.50;;;;;;;16.63;58.18;99875.28;100627;1329;22929;-37
2022/10/04 11:39:53;;;;;;;3.40;0.30;;;;;;;16.96;57.63;99877.38;100612;1345;22521;-41
2022/10/04 11:42:26;;;;;;;1.40;0.70;;;;;;;17.21;56.22;99876.23;100564;1339;22496;-35
2022/10/04 11:44:55;;;;;;;;;;;;;;;16.93;56.47;99875.63;100641;1345;22498;-36
2022/10/04 11:47:25;;;;;;;0.60;0.40;;;;;;;16.04;60.10;99877.55;100648;1333;23112;-36
2022/10/04 11:49:55;;;;;;;4.30;0.70;;;;;;;15.73;62.08;99886.48;100643;1344;22747;-34